Time;durP1;ratioP1;P1;durP2;ratioP2;P2;SDS_P1;SDS_P2;PMS_P1;PMS_P2;Temp;Humidity;BMP_temperature;BMP_pressure;BME280_temperature;BME280_humidity;BME280_pressure;Samples;Min_cycle;Max_cycle;Signal;HPM_P1;HPM_P2
2023/05/21 00:00:41;;;;;;;10.20;5.30;;;;;;;16.22;65.21;101390.77;107636;1251;113574;-59
2023/05/21 00:03:29;;;;;;;8.70;5.00;;;;;;;16.20;65.31;101389.46;107651;1251;110716;-59
2023/05/21 00:06:00;;;;;;;11.60;5.50;;;;;;;16.21;65.29;101388.84;107635;1251;108010;-59
2023/05/21 00:08:29;;;;;;;12.70;5.30;;;;;;;16.24;65.44;101390.41;107587;1251;99191;-60
2023/05/21 00:10:57;;;;;;;19.30;5.50;;;;;;;16.23;65.39;101389.05;107605;1251;99035;-61
2023/05/21 00:13:25;;;;;;;12.60;5.80;;;;;;;16.10;65.38;101389.09;107582;1254;113693;-61
2023/05/21 00:15:54;;;;;;;15.40;5.80;;;;;;;15.91;65.73;101390.43;107543;1255;110627;-60
2023/05/21 00:18:24;;;;;;;12.00;5.80;;;;;;;15.78;66.14;101386.38;107594;1254;109478;-61
2023/05/21 00:20:53;;;;;;;8.40;5.20;;;;;;;15.69;66.49;101389.77;107613;1254;99250;-59
2023/05/21 00:23:22;;;;;;;13.50;5.20;;;;;;;15.71;67.23;101388.86;107644;1254;99195;-60
2023/05/21 00:25:52;;;;;;;17.20;6.60;;;;;;;15.79;67.63;101385.13;107527;1254;112195;-60
2023/05/21 00:28:20;;;;;;;15.10;5.90;;;;;;;15.82;67.42;101388.66;107600;1254;109418;-60
2023/05/21 00:30:50;;;;;;;8.60;5.90;;;;;;;15.82;67.53;101387.91;107624;1255;108255;-61
2023/05/21 00:33:20;;;;;;;12.10;5.90;;;;;;;15.78;67.43;101391.17;107515;1254;99236;-60
2023/05/21 00:35:49;;;;;;;14.70;5.90;;;;;;;15.79;67.73;101390.55;107451;1254;99695;-61
2023/05/21 00:38:17;;;;;;;16.40;6.50;;;;;;;15.80;67.70;101388.16;107610;1256;112581;-59
2023/05/21 00:40:46;;;;;;;12.80;6.00;;;;;;;15.81;67.83;101388.75;107611;1251;109850;-60
2023/05/21 00:43:15;;;;;;;13.00;5.60;;;;;;;15.81;67.93;101382.41;107594;1251;107504;-59
2023/05/21 00:45:45;;;;;;;12.30;5.80;;;;;;;15.80;68.06;101387.05;107580;1251;99237;-63
2023/05/21 00:48:14;;;;;;;18.20;6.50;;;;;;;15.77;68.44;101386.21;107639;1251;99258;-59
2023/05/21 00:50:43;;;;;;;18.80;6.80;;;;;;;15.73;68.24;101387.55;107579;1251;112409;-60
2023/05/21 00:53:14;;;;;;;23.20;6.60;;;;;;;15.63;68.01;101390.34;107588;1254;109731;-59
2023/05/21 00:55:43;;;;;;;13.60;6.90;;;;;;;15.47;68.14;101389.06;107562;1256;108740;-60
2023/05/21 00:58:11;;;;;;;13.70;6.50;;;;;;;15.41;68.76;101387.70;107493;1257;99194;-60
2023/05/21 01:00:40;;;;;;;22.60;7.20;;;;;;;15.32;68.73;101388.56;107606;1256;99870;-59
2023/05/21 01:03:09;;;;;;;10.90;7.00;;;;;;;15.19;69.26;101390.91;107637;1257;112762;-61
2023/05/21 01:05:38;;;;;;;17.30;8.70;;;;;;;15.04;69.99;101393.15;107625;1251;108130;-60
2023/05/21 01:08:09;;;;;;;9.70;7.00;;;;;;;14.87;70.49;101387.14;107530;1254;106628;-58
2023/05/21 01:10:37;;;;;;;18.20;7.80;;;;;;;14.79;70.76;101389.75;107480;1257;99188;-60
2023/05/21 01:13:06;;;;;;;19.80;7.00;;;;;;;14.80;71.10;101387.98;107653;1256;99271;-61
2023/05/21 01:15:36;;;;;;;16.90;7.00;;;;;;;14.84;71.32;101387.05;107587;1255;113415;-59
2023/05/21 01:18:06;;;;;;;12.20;6.60;;;;;;;14.89;71.32;101386.98;107551;1254;109989;-60
2023/05/21 01:20:36;;;;;;;22.70;7.10;;;;;;;14.96;71.26;101385.09;107621;1251;108006;-59
2023/05/21 01:23:05;;;;;;;13.90;6.80;;;;;;;15.02;71.09;101386.28;107552;1256;99185;-59
2023/05/21 01:25:34;;;;;;;10.60;6.60;;;;;;;15.06;70.85;101384.23;107554;1255;99707;-59
2023/05/21 01:28:03;;;;;;;8.80;6.40;;;;;;;15.07;70.64;101379.26;107644;1251;112740;-61
2023/05/21 01:30:32;;;;;;;10.90;6.50;;;;;;;15.07;70.66;101380.71;107662;1251;112507;-60
2023/05/21 01:33:14;;;;;;;15.20;6.60;;;;;;;15.06;70.97;101382.58;107581;1254;107959;-60
2023/05/21 01:35:53;;;;;;;11.30;6.00;;;;;;;15.04;70.85;101377.70;107552;1251;99074;-59
2023/05/21 01:38:41;;;;;;;15.80;6.80;;;;;;;15.00;70.64;101377.02;107540;1257;99674;-59
2023/05/21 01:41:11;;;;;;;13.00;6.90;;;;;;;14.93;70.37;101375.94;107592;1256;113371;-60
2023/05/21 01:43:43;;;;;;;13.90;6.70;;;;;;;14.82;70.22;101373.00;107577;1256;110223;-60
2023/05/21 01:46:16;;;;;;;14.70;6.70;;;;;;;14.77;70.55;101375.67;107591;1251;107489;-59
2023/05/21 01:48:47;;;;;;;10.30;5.80;;;;;;;14.77;70.67;101380.95;107506;1254;99152;-59
2023/05/21 01:51:15;;;;;;;17.20;7.00;;;;;;;14.79;70.82;101380.84;107597;1254;99066;-60
2023/05/21 01:53:44;;;;;;;13.10;6.60;;;;;;;14.83;70.81;101384.25;107588;1255;114641;-60
2023/05/21 01:56:14;;;;;;;14.30;6.20;;;;;;;14.87;70.72;101382.48;107495;1257;110942;-59
2023/05/21 01:58:43;;;;;;;12.30;6.50;;;;;;;14.88;70.49;101381.33;107568;1251;108831;-60
2023/05/21 02:01:11;;;;;;;11.40;5.90;;;;;;;14.89;70.43;101382.31;107561;1251;99169;-62
2023/05/21 02:03:40;;;;;;;9.40;5.70;;;;;;;14.89;70.36;101376.16;107515;1255;99848;-64
2023/05/21 02:06:08;;;;;;;18.80;6.30;;;;;;;14.88;70.16;101376.45;107667;1254;113563;-59
2023/05/21 02:08:37;;;;;;;13.50;6.00;;;;;;;14.86;70.11;101376.59;107574;1256;108733;-60
2023/05/21 02:11:05;;;;;;;13.30;5.80;;;;;;;14.82;69.92;101376.81;107603;1255;107160;-59
2023/05/21 02:13:41;;;;;;;9.80;5.20;;;;;;;14.77;69.68;101380.01;107644;1255;99164;-59
2023/05/21 02:16:13;;;;;;;9.60;5.20;;;;;;;14.73;69.84;101378.39;107594;1254;99752;-60
2023/05/21 02:18:42;;;;;;;11.20;5.10;;;;;;;14.72;69.67;101379.05;107569;1255;113918;-59
2023/05/21 02:21:11;;;;;;;20.10;5.10;;;;;;;14.67;69.26;101378.10;107620;1254;109872;-60
2023/05/21 02:23:41;;;;;;;17.20;5.00;;;;;;;14.64;69.19;101384.62;107618;1251;107352;-59
2023/05/21 02:26:09;;;;;;;12.70;4.90;;;;;;;14.63;68.95;101378.58;107613;1255;99192;-61
2023/05/21 02:28:39;;;;;;;10.70;4.80;;;;;;;14.55;68.35;101381.68;107647;1256;99182;-60
2023/05/21 02:31:08;;;;;;;19.60;5.00;;;;;;;14.50;68.40;101379.61;107590;1256;111392;-60
2023/05/21 02:33:39;;;;;;;10.10;4.80;;;;;;;14.51;68.64;101379.05;107579;1254;108697;-61
2023/05/21 02:36:11;;;;;;;10.90;4.90;;;;;;;14.52;68.60;101381.42;107559;1254;108160;-60
2023/05/21 02:38:44;;;;;;;16.30;5.90;;;;;;;14.53;68.51;101376.23;107601;1254;99634;-60
2023/05/21 02:41:12;;;;;;;11.60;4.30;;;;;;;14.55;68.49;101380.02;107554;1254;99051;-59
2023/05/21 02:43:41;;;;;;;10.20;4.70;;;;;;;14.57;68.36;101379.52;107599;1255;113203;-60
2023/05/21 02:46:10;;;;;;;9.90;4.80;;;;;;;14.57;68.25;101385.52;107674;1255;109102;-60
2023/05/21 02:48:39;;;;;;;19.10;5.60;;;;;;;14.56;68.33;101389.52;107570;1256;108164;-59
2023/05/21 02:51:07;;;;;;;12.70;5.30;;;;;;;14.55;68.22;101393.99;107580;1254;99064;-59
2023/05/21 02:53:36;;;;;;;15.20;7.50;;;;;;;14.54;68.32;101393.52;107535;1253;99960;-58
2023/05/21 02:56:04;;;;;;;11.90;5.20;;;;;;;14.53;68.30;101399.52;107606;1251;112627;-58
2023/05/21 02:58:33;;;;;;;13.40;5.40;;;;;;;14.52;68.48;101398.98;107583;1251;109234;-60
2023/05/21 03:01:01;;;;;;;11.50;5.60;;;;;;;14.47;68.33;101399.94;107562;1251;108269;-60
2023/05/21 03:03:31;;;;;;;29.30;5.80;;;;;;;14.49;68.57;101405.20;107611;1251;99067;-65
2023/05/21 03:05:59;;;;;;;20.40;6.10;;;;;;;14.50;68.46;101404.89;107606;1251;99947;-63
2023/05/21 03:08:28;;;;;;;13.40;5.50;;;;;;;14.51;68.46;101400.33;107616;1251;112607;-60
2023/05/21 03:10:56;;;;;;;18.60;5.30;;;;;;;14.54;68.49;101402.94;107488;1258;109523;-58
2023/05/21 03:13:25;;;;;;;12.20;4.70;;;;;;;14.56;68.54;101398.61;107589;1255;108137;-61
2023/05/21 03:15:55;;;;;;;14.40;4.60;;;;;;;14.50;66.99;101399.98;107456;1254;99178;-59
2023/05/21 03:18:23;;;;;;;11.90;3.60;;;;;;;14.38;66.17;101396.66;107564;1254;99319;-59
2023/05/21 03:20:52;;;;;;;10.40;4.20;;;;;;;14.27;65.89;101395.39;107512;1255;113201;-61
2023/05/21 03:23:21;;;;;;;11.20;4.00;;;;;;;14.17;65.55;101397.52;107651;1251;108699;-59
2023/05/21 03:25:50;;;;;;;8.90;4.00;;;;;;;14.15;65.94;101396.27;107619;1251;107192;-60
2023/05/21 03:28:19;;;;;;;18.50;4.40;;;;;;;14.22;66.07;101398.88;107532;1254;99080;-60
2023/05/21 03:30:49;;;;;;;8.20;3.80;;;;;;;14.29;65.89;101402.03;107613;1254;99742;-60
2023/05/21 03:33:38;;;;;;;7.70;3.60;;;;;;;14.38;65.81;101407.16;107619;1251;112656;-62
2023/05/21 03:36:17;;;;;;;10.60;3.50;;;;;;;14.39;64.69;101412.80;107465;1254;109687;-59
2023/05/21 03:38:45;;;;;;;11.10;4.00;;;;;;;14.28;63.59;101410.93;107633;1257;108306;-60
2023/05/21 03:41:14;;;;;;;9.20;3.60;;;;;;;14.20;63.60;101406.98;107649;1251;99052;-60
2023/05/21 03:43:44;;;;;;;18.30;4.40;;;;;;;14.15;63.45;101407.27;107576;1251;101551;-58
2023/05/21 03:46:13;;;;;;;14.70;4.00;;;;;;;14.14;63.37;101404.52;107604;1251;113156;-58
2023/05/21 03:49:05;;;;;;;11.40;4.00;;;;;;;14.08;62.94;101403.82;107626;1251;110110;-59
2023/05/21 03:51:37;;;;;;;13.80;3.60;;;;;;;13.98;62.65;101406.19;107592;1251;108444;-59
2023/05/21 03:54:05;;;;;;;10.40;3.90;;;;;;;13.91;62.74;101404.59;107657;1251;99148;-60
2023/05/21 03:56:37;;;;;;;8.20;3.60;;;;;;;13.90;62.89;101413.02;107664;1254;99058;-60
2023/05/21 03:59:06;;;;;;;14.80;3.70;;;;;;;13.87;63.07;101413.84;107581;1251;113883;-59
2023/05/21 04:01:35;;;;;;;15.90;4.20;;;;;;;13.83;63.34;101417.66;107614;1251;109223;-59
2023/05/21 04:04:04;;;;;;;9.90;3.90;;;;;;;13.80;63.45;101414.27;107587;1251;106824;-60
2023/05/21 04:06:33;;;;;;;11.50;3.60;;;;;;;13.76;63.46;101417.86;107588;1251;99237;-59
2023/05/21 04:09:01;;;;;;;6.90;3.30;;;;;;;13.76;63.53;101419.89;107581;1251;99583;-60
2023/05/21 04:11:30;;;;;;;12.00;3.30;;;;;;;13.80;63.64;101419.70;107595;1251;113678;-61
2023/05/21 04:13:58;;;;;;;8.30;3.60;;;;;;;13.87;63.74;101419.06;107553;1251;109927;-61
2023/05/21 04:16:27;;;;;;;11.90;3.10;;;;;;;14.00;63.92;101412.33;107611;1254;107703;-60
2023/05/21 04:18:55;;;;;;;12.40;3.40;;;;;;;14.13;64.17;101412.34;107658;1251;99232;-60
2023/05/21 04:21:26;;;;;;;6.80;3.10;;;;;;;14.26;64.23;101415.48;107488;1254;99213;-63
2023/05/21 04:23:56;;;;;;;6.10;3.20;;;;;;;14.36;64.17;101412.69;107668;1251;112644;-60
2023/05/21 04:26:34;;;;;;;5.90;3.00;;;;;;;14.46;64.03;101412.36;107631;1255;108948;-60
2023/05/21 04:29:03;;;;;;;8.00;3.40;;;;;;;14.52;63.52;101414.11;107615;1251;108685;-60
2023/05/21 04:31:32;;;;;;;22.10;3.70;;;;;;;14.59;62.41;101413.48;107598;1251;99278;-60
2023/05/21 04:34:02;;;;;;;10.20;3.10;;;;;;;14.64;61.84;101416.23;107603;1251;99045;-60
2023/05/21 04:36:32;;;;;;;8.20;2.80;;;;;;;14.71;61.36;101416.01;107560;1252;113006;-61
2023/05/21 04:39:01;;;;;;;14.40;3.00;;;;;;;14.76;60.82;101414.60;107629;1254;110158;-60
2023/05/21 04:41:30;;;;;;;17.00;4.50;;;;;;;14.80;60.53;101415.77;107512;1251;108048;-60
2023/05/21 04:43:59;;;;;;;10.40;3.00;;;;;;;14.89;60.49;101417.91;107502;1251;99166;-59
2023/05/21 04:46:30;;;;;;;17.70;7.40;;;;;;;14.95;60.60;101411.83;107513;1254;99066;-60
2023/05/21 04:49:04;;;;;;;14.70;3.60;;;;;;;15.01;60.53;101406.96;107501;1251;113670;-60
2023/05/21 04:51:33;;;;;;;11.80;3.10;;;;;;;15.07;60.34;101404.39;107505;1254;109673;-59
2023/05/21 04:54:02;;;;;;;19.00;3.40;;;;;;;15.12;60.03;101403.20;107495;1251;107671;-60
2023/05/21 04:56:31;;;;;;;13.30;3.20;;;;;;;15.17;59.95;101405.70;107583;1257;99177;-62
2023/05/21 04:59:02;;;;;;;18.10;3.10;;;;;;;15.24;60.13;101408.89;107560;1251;99063;-62
2023/05/21 05:01:34;;;;;;;6.90;3.10;;;;;;;15.30;60.12;101410.26;107474;1254;113491;-59
2023/05/21 05:04:03;;;;;;;15.40;3.30;;;;;;;15.36;59.75;101411.85;107523;1254;109278;-59
2023/05/21 05:06:31;;;;;;;11.00;2.90;;;;;;;15.40;59.54;101411.59;107557;1256;107735;-61
2023/05/21 05:09:00;;;;;;;8.50;2.70;;;;;;;15.44;59.41;101407.50;107454;1254;99176;-59
2023/05/21 05:11:28;;;;;;;17.10;3.50;;;;;;;15.48;59.46;101401.76;107607;1251;99115;-61
2023/05/21 05:13:58;;;;;;;10.50;3.50;;;;;;;15.55;59.31;101398.42;107618;1251;113748;-60
2023/05/21 05:16:28;;;;;;;17.90;3.30;;;;;;;15.60;59.20;101396.59;107588;1251;109439;-61
2023/05/21 05:18:57;;;;;;;6.80;2.80;;;;;;;15.66;59.01;101398.06;107568;1251;107133;-58
2023/05/21 05:21:26;;;;;;;13.70;2.90;;;;;;;15.72;58.73;101401.04;107510;1251;99288;-59
2023/05/21 05:23:56;;;;;;;5.60;2.70;;;;;;;15.77;58.47;101400.34;107544;1254;99717;-59
2023/05/21 05:26:27;;;;;;;7.90;2.50;;;;;;;15.82;58.62;101403.67;107677;1254;113156;-61
2023/05/21 05:28:56;;;;;;;8.60;2.40;;;;;;;15.88;58.41;101406.03;107608;1251;108185;-60
2023/05/21 05:31:25;;;;;;;7.70;3.30;;;;;;;15.93;57.85;101402.79;107463;1254;108452;-59
2023/05/21 05:33:54;;;;;;;13.80;2.80;;;;;;;15.97;57.55;101397.85;107700;1253;99125;-60
2023/05/21 05:36:24;;;;;;;7.10;3.10;;;;;;;16.03;57.14;101394.02;107609;1254;99697;-59
2023/05/21 05:38:52;;;;;;;9.60;2.80;;;;;;;16.07;57.14;101389.35;107665;1254;113579;-61
2023/05/21 05:41:21;;;;;;;10.80;2.60;;;;;;;16.12;56.84;101394.64;107576;1251;109429;-60
2023/05/21 05:43:50;;;;;;;17.50;2.70;;;;;;;16.16;56.76;101396.60;107501;1251;108125;-60
2023/05/21 05:46:20;;;;;;;9.90;2.60;;;;;;;16.21;56.80;101398.88;107593;1254;99277;-59
2023/05/21 05:48:51;;;;;;;7.70;2.90;;;;;;;16.25;56.76;101401.15;107647;1254;99089;-61
2023/05/21 05:51:19;;;;;;;18.60;3.20;;;;;;;16.29;56.92;101399.98;107581;1251;113277;-58
2023/05/21 05:53:47;;;;;;;9.70;3.80;;;;;;;16.34;56.56;101398.94;107600;1251;108622;-61
2023/05/21 05:56:16;;;;;;;7.20;2.50;;;;;;;16.40;56.39;101398.02;107592;1251;109036;-59
2023/05/21 05:58:44;;;;;;;9.30;3.30;;;;;;;16.45;56.29;101395.14;107507;1251;99223;-61
2023/05/21 06:01:15;;;;;;;9.20;2.80;;;;;;;16.49;56.28;101391.98;107569;1254;99717;-59
2023/05/21 06:03:43;;;;;;;13.50;3.40;;;;;;;16.53;56.11;101388.81;107650;1254;113760;-60
2023/05/21 06:06:15;;;;;;;9.30;3.00;;;;;;;16.58;55.69;101387.38;107653;1254;110448;-61
2023/05/21 06:08:45;;;;;;;14.00;3.00;;;;;;;16.63;55.59;101389.82;107480;1257;107695;-60
2023/05/21 06:11:15;;;;;;;7.40;3.20;;;;;;;16.69;55.31;101394.84;107562;1251;99166;-60
2023/05/21 06:13:44;;;;;;;7.10;2.80;;;;;;;16.73;55.34;101398.17;107535;1251;99083;-60
2023/05/21 06:16:14;;;;;;;12.70;3.50;;;;;;;16.77;55.31;101397.80;107538;1251;112432;-61
2023/05/21 06:18:43;;;;;;;11.00;3.20;;;;;;;16.80;55.28;101394.25;107603;1251;108642;-58
2023/05/21 06:21:11;;;;;;;13.50;3.20;;;;;;;16.83;54.90;101390.84;107555;1251;108662;-60
2023/05/21 06:23:41;;;;;;;6.80;2.30;;;;;;;16.85;55.10;101384.09;107539;1250;99080;-60
2023/05/21 06:26:10;;;;;;;7.30;2.30;;;;;;;16.88;55.06;101379.80;107473;1254;99675;-63
2023/05/21 06:28:38;;;;;;;12.50;2.50;;;;;;;16.89;54.48;101375.48;107502;1254;113372;-60
2023/05/21 06:31:08;;;;;;;8.60;2.50;;;;;;;16.93;54.45;101371.80;107544;1251;108673;-59
2023/05/21 06:33:38;;;;;;;17.30;3.40;;;;;;;17.00;54.60;101369.34;107594;1254;107828;-61
2023/05/21 06:36:07;;;;;;;7.20;2.70;;;;;;;17.07;54.42;101367.67;107562;1254;99148;-61
2023/05/21 06:38:35;;;;;;;15.80;2.90;;;;;;;17.13;54.03;101363.38;107494;1254;99397;-60
2023/05/21 06:41:04;;;;;;;12.10;2.50;;;;;;;17.20;54.26;101364.24;107665;1251;113642;-61
2023/05/21 06:43:51;;;;;;;7.80;2.80;;;;;;;17.32;54.60;101356.30;107610;1251;108654;-58
2023/05/21 06:46:52;;;;;;;14.70;3.80;;;;;;;17.44;54.35;101355.51;107303;1254;108426;-61
2023/05/21 06:49:20;;;;;;;10.70;3.50;;;;;;;17.55;54.66;101356.84;107638;1254;99188;-59
2023/05/21 06:51:49;;;;;;;17.40;2.70;;;;;;;17.65;54.18;101353.92;107459;1254;99717;-61
2023/05/21 06:54:17;;;;;;;10.80;3.00;;;;;;;17.74;53.86;101351.51;107556;1251;112851;-60
2023/05/21 06:56:46;;;;;;;3.30;1.90;;;;;;;17.81;53.27;101350.53;107582;1251;109438;-61
2023/05/21 06:59:17;;;;;;;7.20;2.40;;;;;;;17.92;52.42;101346.19;107519;1251;108187;-61
2023/05/21 07:01:45;;;;;;;12.20;2.50;;;;;;;18.03;52.51;101343.64;107602;1251;99269;-61
2023/05/21 07:04:14;;;;;;;6.30;2.70;;;;;;;18.14;52.87;101345.91;107675;1251;99146;-60
2023/05/21 07:06:43;;;;;;;6.40;1.90;;;;;;;18.24;52.24;101345.70;107581;1251;112820;-60
2023/05/21 07:09:12;;;;;;;12.80;2.00;;;;;;;18.29;51.42;101342.77;107649;1250;108298;-61
2023/05/21 07:11:40;;;;;;;5.80;2.50;;;;;;;18.35;51.65;101340.80;107591;1251;108259;-61
2023/05/21 07:14:10;;;;;;;7.40;2.40;;;;;;;18.40;51.38;101339.67;107569;1254;99664;-59
2023/05/21 07:16:38;;;;;;;8.10;2.90;;;;;;;18.46;50.68;101337.98;107650;1251;99143;-61
2023/05/21 07:19:07;;;;;;;6.80;2.40;;;;;;;18.48;50.64;101334.48;107632;1256;112720;-61
2023/05/21 07:21:36;;;;;;;11.40;2.90;;;;;;;18.56;50.77;101341.33;107616;1251;110058;-60
2023/05/21 07:24:06;;;;;;;13.50;2.60;;;;;;;18.66;49.51;101339.31;107570;1254;108614;-60
2023/05/21 07:26:38;;;;;;;16.80;2.30;;;;;;;18.77;49.45;101341.33;107560;1251;99080;-60
2023/05/21 07:29:07;;;;;;;8.10;2.50;;;;;;;18.85;49.76;101338.28;107642;1252;99823;-61
2023/05/21 07:31:35;;;;;;;10.90;2.80;;;;;;;18.96;49.17;101341.77;107664;1255;113160;-60
2023/05/21 07:34:04;;;;;;;17.10;2.90;;;;;;;19.03;49.82;101340.11;107625;1254;108048;-61
2023/05/21 07:36:33;;;;;;;9.00;2.90;;;;;;;19.10;49.72;101336.36;107426;1254;107017;-60
2023/05/21 07:39:02;;;;;;;10.10;2.60;;;;;;;19.19;50.01;101331.13;107421;1254;99189;-59
2023/05/21 07:41:31;;;;;;;7.80;2.60;;;;;;;19.31;49.68;101328.25;107462;1252;99697;-64
2023/05/21 07:44:01;;;;;;;9.60;3.00;;;;;;;19.43;49.42;101331.77;107616;1254;113777;-60
2023/05/21 07:46:31;;;;;;;12.30;2.80;;;;;;;19.48;49.31;101335.76;107441;1254;110231;-60
2023/05/21 07:49:00;;;;;;;10.70;2.70;;;;;;;19.52;48.91;101331.41;107601;1256;107733;-62
2023/05/21 07:51:32;;;;;;;7.80;2.40;;;;;;;19.59;48.99;101332.45;107411;1254;99233;-60
2023/05/21 07:54:01;;;;;;;10.50;2.60;;;;;;;19.65;48.54;101327.67;107572;1253;99701;-60
2023/05/21 07:56:32;;;;;;;10.40;2.50;;;;;;;19.74;48.74;101330.16;107633;1256;113512;-60
2023/05/21 07:59:01;;;;;;;8.40;2.30;;;;;;;19.83;48.62;101328.70;107579;1254;110114;-64
2023/05/21 08:01:36;;;;;;;6.40;2.30;;;;;;;19.90;48.32;101324.25;106831;1251;974832;-59
2023/05/21 08:04:05;;;;;;;12.40;2.40;;;;;;;19.97;47.45;101322.16;107599;1251;99166;-60
2023/05/21 08:06:36;;;;;;;11.20;2.70;;;;;;;20.07;47.17;101322.38;107622;1253;99708;-59
2023/05/21 08:09:05;;;;;;;10.30;2.30;;;;;;;20.17;47.63;101321.98;107581;1251;111407;-60
2023/05/21 08:11:34;;;;;;;6.30;2.80;;;;;;;20.29;48.02;101322.09;107596;1253;110031;-62
2023/05/21 08:14:03;;;;;;;9.20;3.00;;;;;;;20.43;47.35;101321.52;107503;1251;108383;-59
2023/05/21 08:16:32;;;;;;;10.70;2.90;;;;;;;20.53;47.26;101319.81;107519;1254;99067;-59
2023/05/21 08:19:01;;;;;;;5.00;2.40;;;;;;;20.61;46.79;101326.27;107626;1251;99195;-60
2023/05/21 08:21:31;;;;;;;20.10;3.10;;;;;;;20.65;46.67;101319.21;107506;1251;113733;-61
2023/05/21 08:24:01;;;;;;;11.50;2.60;;;;;;;20.74;46.95;101318.17;107501;1251;110050;-61
2023/05/21 08:26:30;;;;;;;7.50;2.30;;;;;;;20.85;46.60;101317.20;107515;1254;108179;-60
2023/05/21 08:28:58;;;;;;;14.30;2.60;;;;;;;20.96;46.91;101317.29;107493;1253;99210;-59
2023/05/21 08:31:27;;;;;;;10.40;2.70;;;;;;;21.06;46.61;101316.05;107729;1254;99745;-59
2023/05/21 08:33:56;;;;;;;16.10;2.60;;;;;;;21.14;45.98;101312.64;107625;1255;112787;-60
2023/05/21 08:36:37;;;;;;;10.90;2.90;;;;;;;21.26;45.94;101312.44;107570;1254;109654;-60
2023/05/21 08:39:16;;;;;;;8.20;2.30;;;;;;;21.38;45.74;101316.66;107559;1252;108521;-61
2023/05/21 08:41:48;;;;;;;14.30;2.50;;;;;;;21.48;45.78;101310.16;107613;1254;99166;-63
2023/05/21 08:44:23;;;;;;;7.00;2.60;;;;;;;21.61;45.12;101311.15;107602;1253;99694;-60
2023/05/21 08:46:53;;;;;;;8.60;2.60;;;;;;;21.71;45.25;101308.54;107559;1254;113094;-60
2023/05/21 08:49:25;;;;;;;14.40;2.70;;;;;;;21.89;45.15;101308.06;107482;1253;110010;-59
2023/05/21 08:51:57;;;;;;;16.70;3.20;;;;;;;22.09;44.99;101308.63;107452;1254;107549;-59
2023/05/21 08:54:26;;;;;;;13.20;3.10;;;;;;;22.30;44.46;101304.73;107449;1254;99080;-59
2023/05/21 08:56:57;;;;;;;7.10;2.90;;;;;;;22.43;43.86;101307.16;107540;1254;100883;-64
2023/05/21 08:59:28;;;;;;;13.30;3.30;;;;;;;22.55;43.59;101303.97;107490;1257;113582;-61
2023/05/21 09:01:58;;;;;;;11.30;3.10;;;;;;;22.72;43.40;101302.48;107566;1256;110183;-61
2023/05/21 09:04:35;;;;;;;15.90;6.50;;;;;;;22.93;42.57;101300.38;107552;1251;108488;-59
2023/05/21 09:07:04;;;;;;;11.60;3.10;;;;;;;23.10;42.10;101296.34;107547;1253;99122;-59
2023/05/21 09:10:08;;;;;;;8.50;2.90;;;;;;;23.35;41.39;101287.88;107633;1253;99025;-62
2023/05/21 09:12:36;;;;;;;10.40;3.20;;;;;;;23.52;41.39;101291.40;107629;1251;112049;-61
2023/05/21 09:15:06;;;;;;;13.50;2.90;;;;;;;23.78;41.36;101287.36;107608;1250;109604;-62
2023/05/21 09:17:38;;;;;;;8.50;2.70;;;;;;;23.99;40.66;101291.44;107603;1251;107888;-60
2023/05/21 09:20:28;;;;;;;13.60;3.60;;;;;;;24.31;40.14;101286.64;107601;1251;99279;-61
2023/05/21 09:23:05;;;;;;;14.80;4.20;;;;;;;24.66;39.51;101288.07;107578;1251;99326;-62
2023/05/21 09:25:36;;;;;;;;;;;;;;;24.92;38.87;101287.67;107616;1251;113099;-60
2023/05/21 09:28:14;;;;;;;13.60;2.60;;;;;;;25.26;38.63;101284.69;107571;1250;109217;-60
2023/05/21 09:30:52;;;;;;;10.20;3.00;;;;;;;25.53;37.49;101281.02;107586;1251;108811;-60
2023/05/21 09:33:26;;;;;;;8.70;3.00;;;;;;;25.63;37.12;101279.79;107649;1251;99176;-61
2023/05/21 09:35:55;;;;;;;16.60;3.30;;;;;;;25.91;37.49;101280.27;107551;1251;99056;-61
2023/05/21 09:38:25;;;;;;;11.40;3.00;;;;;;;26.18;37.23;101274.84;107605;1254;113212;-63
2023/05/21 09:40:55;;;;;;;17.50;3.00;;;;;;;26.51;36.95;101272.29;107649;1253;110108;-59
2023/05/21 09:43:24;;;;;;;10.90;3.40;;;;;;;26.82;35.91;101267.52;107515;1253;106809;-61
2023/05/21 09:45:56;;;;;;;11.70;2.60;;;;;;;27.13;35.13;101271.43;107578;1256;99068;-60
2023/05/21 09:48:39;;;;;;;8.50;3.10;;;;;;;27.33;34.56;101273.08;107585;1254;99189;-61
2023/05/21 09:51:19;;;;;;;11.10;3.40;;;;;;;27.50;35.01;101269.06;107634;1253;113064;-62
2023/05/21 09:53:50;;;;;;;16.90;2.90;;;;;;;27.78;34.17;101262.89;107626;1254;110117;-62
2023/05/21 09:56:30;;;;;;;8.40;3.50;;;;;;;27.97;33.64;101266.05;107516;1251;107806;-65
2023/05/21 09:59:05;;;;;;;14.50;3.20;;;;;;;28.10;33.07;101259.29;107497;1251;99172;-60
2023/05/21 10:01:34;;;;;;;15.00;2.70;;;;;;;28.28;32.46;101260.63;107538;1254;99096;-61
2023/05/21 10:04:07;;;;;;;16.30;3.10;;;;;;;28.16;31.63;101258.81;107531;1251;112619;-60
2023/05/21 10:06:46;;;;;;;9.70;3.40;;;;;;;27.56;33.15;101257.23;107607;1254;109233;-62
2023/05/21 10:09:18;;;;;;;12.20;3.50;;;;;;;27.97;33.03;101256.48;107624;1251;108675;-61
2023/05/21 10:11:50;;;;;;;11.40;3.10;;;;;;;28.73;32.16;101253.64;107584;1251;99192;-61
2023/05/21 10:14:21;;;;;;;14.70;3.10;;;;;;;29.36;31.38;101247.61;107615;1251;99310;-60
2023/05/21 10:16:53;;;;;;;9.60;2.80;;;;;;;29.93;30.18;101250.70;107637;1250;114387;-61
2023/05/21 10:19:22;;;;;;;10.70;3.00;;;;;;;30.26;29.27;101248.86;107623;1250;110004;-61
2023/05/21 10:21:53;;;;;;;15.00;3.20;;;;;;;30.07;29.22;101248.40;107549;1251;107185;-61
2023/05/21 10:24:23;;;;;;;11.40;3.50;;;;;;;29.51;30.04;101248.55;107570;1253;99096;-60
2023/05/21 10:26:52;;;;;;;17.00;3.80;;;;;;;29.93;30.35;101247.71;107548;1254;99172;-60
2023/05/21 10:29:22;;;;;;;7.90;2.50;;;;;;;29.82;29.63;101244.92;107615;1254;113612;-60
2023/05/21 10:31:51;;;;;;;11.30;2.60;;;;;;;29.62;29.51;101245.45;107598;1251;109276;-59
2023/05/21 10:34:22;;;;;;;12.30;3.10;;;;;;;29.05;30.56;101250.50;107594;1251;107180;-61
2023/05/21 10:36:53;;;;;;;12.80;3.20;;;;;;;29.06;31.30;101245.77;107523;1251;99179;-62
2023/05/21 10:39:24;;;;;;;15.00;2.90;;;;;;;29.84;30.78;101237.81;107656;1254;99737;-61
2023/05/21 10:42:22;;;;;;;9.00;2.70;;;;;;;30.61;29.69;101237.98;107660;1256;113655;-60
2023/05/21 10:45:07;;;;;;;13.90;4.40;;;;;;;30.54;29.88;101239.49;107582;1251;110000;-61
2023/05/21 10:48:00;;;;;;;9.10;2.80;;;;;;;30.77;29.90;101237.00;107562;1253;107888;-61
2023/05/21 10:50:48;;;;;;;10.50;2.70;;;;;;;30.34;30.04;101232.41;107648;1253;99935;-61
2023/05/21 10:53:41;;;;;;;11.30;3.50;;;;;;;30.86;29.25;101228.52;107621;1251;99140;-61
2023/05/21 10:56:15;;;;;;;7.30;2.70;;;;;;;30.91;28.01;101230.48;107593;1251;114829;-61
2023/05/21 10:59:02;;;;;;;10.30;3.30;;;;;;;30.51;27.49;101233.16;107610;1250;109676;-59
2023/05/21 11:01:35;;;;;;;6.40;2.50;;;;;;;29.75;28.42;101227.91;107621;1254;107820;-61
2023/05/21 11:04:05;;;;;;;7.70;2.80;;;;;;;30.25;27.88;101223.20;107637;1251;99233;-61
2023/05/21 11:06:33;;;;;;;16.20;3.50;;;;;;;30.90;28.28;101216.12;107612;1251;99226;-60
2023/05/21 11:09:12;;;;;;;9.20;2.20;;;;;;;30.70;28.23;101223.59;107606;1251;113631;-60
2023/05/21 11:11:41;;;;;;;13.60;3.00;;;;;;;30.18;29.02;101224.55;107656;1251;109838;-61
2023/05/21 11:14:30;;;;;;;9.10;3.00;;;;;;;29.83;28.71;101226.04;107635;1254;107812;-59
2023/05/21 11:17:00;;;;;;;7.90;3.40;;;;;;;29.24;29.62;101227.65;107586;1253;99182;-62
2023/05/21 11:19:35;;;;;;;9.40;3.00;;;;;;;28.88;30.13;101228.70;107622;1251;99296;-60
2023/05/21 11:22:22;;;;;;;15.20;2.40;;;;;;;28.84;30.80;101226.45;107655;1251;111874;-61
2023/05/21 11:24:55;;;;;;;7.80;3.10;;;;;;;30.07;29.60;101221.55;107606;1251;110132;-62